Aviation Digital Data Service (ADDS)

Output produced by METARs form (1742 UTC 25 February 2018)
found at http://aviationweather.gov/adds/metars/
 
KSHV 251656Z 17009KT 10SM -RA SCT013 OVC100 13/12 A3012 RMK AO2 RAB15 SLP199 P0000 T01280117